Latest Weather Observations for Rhyll

IDV60801

Issued at 6:52 am EST Wednesday 22 September 2021 (issued every 10 minutes, with the page automatically refreshed every 10 minutes)

About weather observations | Map of weather stations | Latest weather observations for VIC | Other Formats
Station Details ID: 086373 Name: RHYLL Lat: -38.46 Lon: 145.31 Height: 13.4 m
Data from the previous 72 hours. | See also: Recent months at Rhyll
Date/Time
EST
Temp
°C
App
Temp
°C
Dew
Point
°C
Rel
Hum
%
Delta-T
°C
Wind Press
QNH
hPa
Press
MSL
hPa
Rain since
9am
mm
Dir  Spd
km/h
Gust
km/h
Spd
kts
Gust
kts
22/06:30am 11.1 9.8 10.0 93 0.6 W 7 13 4 7 1025.2 1025.2 3.0
22/06:00am 11.1 9.4 9.9 92 0.6 W 9 17 5 9 1024.8 1024.8 3.0
22/05:30am 10.8 9.0 9.6 92 0.6 W 9 15 5 8 1024.4 1024.4 3.0
22/05:00am 10.7 8.5 9.3 91 0.7 W 11 17 6 9 1024.2 1024.2 3.0
22/04:30am 10.9 8.8 9.8 93 0.6 W 11 26 6 14 1024.2 1024.2 3.0
22/04:00am 10.9 9.7 9.5 91 0.7 WSW 6 11 3 6 1024.1 1024.1 3.0
22/03:30am 11.1 8.6 9.7 91 0.7 WSW 13 22 7 12 1024.0 1024.0 3.0
22/03:00am 11.0 8.2 9.9 93 0.6 W 15 28 8 15 1024.5 1024.5 3.0
22/02:30am 11.0 9.3 9.9 93 0.6 WSW 9 19 5 10 1024.7 1024.7 3.0
22/02:00am 11.2 9.1 9.6 90 0.8 WSW 11 20 6 11 1024.8 1024.8 2.6
22/01:30am 11.0 9.3 9.8 92 0.6 W 9 17 5 9 1025.0 1025.0 2.6
22/01:00am 10.9 9.8 10.0 94 0.5 W 6 13 3 7 1025.3 1025.3 2.6
22/12:30am 11.1 9.9 10.2 94 0.5 W 7 15 4 8 1025.4 1025.4 2.6
22/12:00am 10.7 9.4 9.8 94 0.5 W 7 17 4 9 1025.4 1025.4 2.6
 
Date/Time
EST
Temp
°C
App
Temp
°C
Dew
Point
°C
Rel
Hum
%
Delta-T
°C
Wind Press
QNH
hPa
Press
MSL
hPa
Rain since
9am
mm
Dir  Spd
km/h
Gust
km/h
Spd
kts
Gust
kts
21/11:30pm 10.6 8.9 9.8 95 0.4 WNW 9 17 5 9 1025.6 1025.6 2.4
21/11:00pm 10.6 8.9 9.7 94 0.4 WNW 9 17 5 9 1025.6 1025.6 2.2
21/10:30pm 10.6 9.2 9.5 93 0.6 WNW 7 17 4 9 1025.6 1025.6 2.0
21/10:00pm 10.3 9.1 9.4 94 0.4 WNW 6 13 3 7 1025.8 1025.8 1.8
21/09:30pm 10.2 8.9 9.1 93 0.5 WNW 6 13 3 7 1026.0 1026.0 1.4
21/09:00pm 10.0 8.4 8.9 93 0.5 NW 7 13 4 7 1026.0 1026.0 1.2
21/08:30pm 9.9 8.5 8.7 92 0.6 NW 6 11 3 6 1026.3 1026.3 1.0
21/08:00pm 9.7 8.0 8.3 91 0.7 WNW 7 17 4 9 1026.5 1026.5 1.0
21/07:30pm 9.5 7.9 8.1 91 0.7 WNW 6 13 3 7 1026.4 1026.4 0.8
21/07:00pm 9.3 7.1 7.9 91 0.7 W 9 19 5 10 1026.5 1026.5 0.4
21/06:30pm 9.5 7.0 8.1 91 0.7 W 11 20 6 11 1026.4 1026.4 0.4
21/06:00pm 10.0 7.8 7.8 86 1.0 W 9 20 5 11 1026.1 1026.1 0.0
21/05:30pm 10.3 7.6 7.4 82 1.4 W 11 26 6 14 1026.0 1026.0 0.0
21/05:00pm 11.0 7.7 6.2 72 2.2 W 13 24 7 13 1025.5 1025.5 0.0
21/04:30pm 11.4 7.4 5.1 65 2.9 W 15 22 8 12 1025.3 1025.3 0.0
21/04:00pm 11.5 7.9 5.2 65 2.9 W 13 24 7 13 1025.3 1025.3 0.0
21/03:30pm 11.4 6.9 4.4 62 3.2 W 17 28 9 15 1025.4 1025.4 0.0
21/03:00pm 11.9 6.9 3.7 57 3.6 WSW 19 35 10 19 1025.5 1025.5 0.0
21/02:30pm 11.9 6.6 3.2 55 3.8 SW 20 33 11 18 1025.5 1025.5 0.0
21/02:00pm 11.8 6.6 3.8 58 3.5 WSW 20 35 11 19 1025.6 1025.6 0.0
21/01:30pm 12.3 6.9 4.3 58 3.6 SW 22 37 12 20 1025.7 1025.7 0.0
21/01:00pm 12.2 6.7 4.2 58 3.6 SW 22 41 12 22 1025.5 1025.5 0.0
21/12:30pm 12.0 7.0 4.7 61 3.3 WSW 20 37 11 20 1025.3 1025.3 0.0
21/12:00pm 12.4 6.8 3.4 54 4.0 SW 22 37 12 20 1025.1 1025.1 0.0
21/11:30am 12.2 6.8 4.4 59 3.5 SW 22 33 12 18 1025.0 1025.0 0.0
21/11:00am 11.7 6.5 3.5 57 3.6 SW 20 37 11 20 1024.7 1024.7 0.0
21/10:30am 12.0 6.1 3.8 57 3.7 SW 24 37 13 20 1024.8 1024.8 0.0
21/10:00am 12.2 6.8 4.4 59 3.5 SW 22 37 12 20 1024.3 1024.3 0.0
21/09:30am 11.2 5.7 4.2 62 3.1 SW 22 37 12 20 1024.2 1024.2 0.0
21/09:00am 10.1 5.7 4.5 68 2.5 SW 17 33 9 18 1024.0 1024.0 14.6
21/08:30am 9.1 4.1 4.5 73 2.0 SW 20 35 11 19 1023.5 1023.5 14.6
21/08:00am 9.1 4.9 5.5 78 1.6 SSW 17 30 9 16 1022.7 1022.7 14.4
21/07:30am 9.0 4.5 6.3 83 1.2 SSW 19 35 10 19 1022.1 1022.1 14.4
21/07:03am 8.6 2.2 5.4 80 1.4 SSW 28 46 15 25 1021.7 1021.7 14.2
21/07:00am 8.8 3.6 5.4 79 1.5 SSW 22 46 12 25 1021.7 1021.7 14.2
21/06:30am 9.0 3.7 4.8 75 1.9 SSW 22 37 12 20 1021.1 1021.1 14.2
21/06:02am 8.3 2.0 5.9 85 1.1 SSW 28 54 15 29 1021.0 1021.0 13.8
21/06:00am 8.3 2.4 5.8 84 1.1 SSW 26 54 14 29 1020.9 1020.9 13.8
21/05:30am 8.7 3.3 4.5 75 1.9 SW 22 39 12 21 1020.2 1020.2 13.8
21/05:00am 8.1 2.5 5.4 83 1.2 SW 24 52 13 28 1019.7 1019.7 13.6
21/04:30am 8.8 4.8 5.0 77 1.7 SW 15 26 8 14 1018.9 1018.9 13.4
21/04:00am 8.9 3.6 4.9 76 1.8 SW 22 35 12 19 1018.5 1018.5 13.4
21/03:30am 9.5 3.3 4.5 71 2.2 SW 26 37 14 20 1018.0 1018.0 13.4
21/03:00am 8.9 3.0 4.1 72 2.1 SW 24 46 13 25 1017.6 1017.6 13.4
21/02:30am 9.5 3.8 4.7 72 2.1 SW 24 37 13 20 1017.3 1017.3 13.4
21/02:00am 8.6 3.7 5.0 78 1.6 SW 20 37 11 20 1017.2 1017.2 13.4
21/01:39am 8.1 1.8 5.9 86 1.0 SW 28 48 15 26 1017.2 1017.2 13.4
21/01:30am 7.8 2.9 5.3 84 1.1 SW 20 39 11 21 1017.1 1017.1 13.4
21/01:00am 8.1 4.7 6.1 87 0.9 SW 13 20 7 11 1017.1 1017.1 12.2
21/12:30am 7.0 2.1 4.0 81 1.3 SW 19 30 10 16 1016.7 1016.7 12.2
21/12:00am 8.0 4.6 5.8 86 1.0 SW 13 33 7 18 1016.4 1016.4 11.4
 
Date/Time
EST
Temp
°C
App
Temp
°C
Dew
Point
°C
Rel
Hum
%
Delta-T
°C
Wind Press
QNH
hPa
Press
MSL
hPa
Rain since
9am
mm
Dir  Spd
km/h
Gust
km/h
Spd
kts
Gust
kts
20/11:30pm 7.4 2.0 4.7 83 1.2 WSW 22 39 12 21 1016.4 1016.4 11.0
20/11:04pm 8.1 1.6 4.9 80 1.4 SW 28 46 15 25 1016.1 1016.1 10.8
20/11:00pm 8.7 2.0 5.8 82 1.3 SSW 30 46 16 25 1015.9 1015.9 10.8
20/10:58pm 8.7 2.4 5.6 81 1.4 SSW 28 46 15 25 1015.8 1015.8 10.8
20/10:30pm 8.8 2.9 3.8 71 2.2 SW 24 43 13 23 1015.6 1015.6 10.8
20/10:00pm 7.9 4.6 4.7 80 1.4 WSW 11 22 6 12 1015.2 1015.2 10.8
20/09:30pm 7.3 4.0 4.3 81 1.3 W 11 24 6 13 1014.9 1014.9 9.8
20/09:12pm 7.8 3.2 3.7 75 1.8 WSW 17 37 9 20 1014.6 1014.6 9.2
20/09:00pm 7.3 4.0 4.4 82 1.3 W 11 19 6 10 1014.8 1014.8 9.2
20/08:30pm 7.0 3.3 4.3 83 1.2 W 13 28 7 15 1014.6 1014.6 9.2
20/08:00pm 6.6 5.1 5.1 90 0.7 SSW 2 4 1 2 1014.1 1014.1 9.0
20/07:30pm 6.1 4.2 4.9 92 0.5 WNW 4 7 2 4 1013.8 1013.8 9.0
20/07:00pm 6.1 3.8 4.6 90 0.6 WNW 6 11 3 6 1013.4 1013.4 9.0
20/06:30pm 5.9 1.4 4.2 89 0.7 SW 17 30 9 16 1013.1 1013.1 8.8
20/06:00pm 6.5 2.5 4.8 89 0.7 WSW 15 33 8 18 1012.4 1012.4 7.6
20/05:30pm 6.4 3.1 4.7 89 0.7 WSW 11 22 6 12 1011.5 1011.5 6.0
20/05:00pm 7.0 4.3 5.5 90 0.7 W 9 17 5 9 1011.4 1011.4 4.8
20/04:30pm 6.3 1.4 4.1 86 0.9 WSW 19 41 10 22 1011.2 1011.2 4.0
20/04:00pm 8.6 4.9 4.6 76 1.8 W 13 24 7 13 1010.8 1010.8 2.6
20/03:30pm 9.1 4.1 3.7 69 2.3 W 19 33 10 18 1010.6 1010.6 2.2
20/03:00pm 9.4 5.0 5.0 74 2.0 W 17 28 9 15 1010.4 1010.4 2.2
20/02:30pm 7.4 2.7 5.2 86 1.0 WSW 19 37 10 20 1010.4 1010.4 2.2
20/02:00pm 8.0 3.4 3.5 73 1.9 W 17 33 9 18 1010.2 1010.2 2.0
20/01:30pm 12.2 8.5 6.5 68 2.7 WNW 15 26 8 14 1009.9 1009.9 1.6
20/01:00pm 9.8 5.9 5.4 74 2.0 W 15 28 8 15 1009.9 1009.9 1.6
20/12:30pm 10.8 6.3 6.0 72 2.2 W 19 32 10 17 1010.4 1010.4 1.2
20/12:00pm 9.4 4.8 5.8 78 1.6 WSW 19 33 10 18 1010.8 1010.8 1.0
20/11:30am 9.1 6.6 6.7 85 1.1 W 9 22 5 12 1010.8 1010.8 1.0
20/11:00am 6.7 1.0 4.7 87 0.9 WSW 24 44 13 24 1011.5 1011.5 1.0
20/10:45am 10.8 4.3 2.9 58 3.4 W 26 52 14 28 1011.3 1011.3 0.2
20/10:30am 11.9 7.7 5.8 66 2.8 WNW 17 30 9 16 1010.5 1010.5 0.2
20/10:00am 9.6 5.6 6.5 81 1.4 W 17 33 9 18 1010.8 1010.8 0.2
20/09:30am 9.6 5.4 5.8 77 1.7 W 17 28 9 15 1010.6 1010.6 0.2
20/09:00am 10.6 5.2 4.7 67 2.7 WNW 22 43 12 23 1010.5 1010.5 2.0
20/08:30am 11.1 6.5 5.4 68 2.6 WNW 19 33 10 18 1010.0 1010.0 2.0
20/08:00am 10.7 5.9 5.5 70 2.4 WNW 20 44 11 24 1009.6 1009.6 2.0
20/07:30am 10.4 5.7 5.0 69 2.4 WNW 19 41 10 22 1009.6 1009.6 2.0
20/07:00am 10.5 6.6 5.5 71 2.3 WNW 15 32 8 17 1009.2 1009.2 2.0
20/06:30am 10.5 6.3 5.5 71 2.3 WNW 17 32 9 17 1009.3 1009.3 2.0
20/06:00am 10.3 6.1 5.5 72 2.2 WNW 17 28 9 15 1009.0 1009.0 2.0
20/05:30am 10.5 6.3 5.5 71 2.3 WNW 17 33 9 18 1008.8 1008.8 2.0
20/05:00am 10.7 5.5 5.3 69 2.5 WNW 22 35 12 19 1008.5 1008.5 2.0
20/04:30am 11.1 5.8 5.0 66 2.8 WNW 22 44 12 24 1008.4 1008.4 2.0
20/04:00am 11.6 6.4 5.7 67 2.7 WNW 22 41 12 22 1008.4 1008.4 2.0
20/03:30am 11.7 7.1 5.8 67 2.7 WNW 19 33 10 18 1008.3 1008.3 2.0
20/03:00am 11.3 8.3 6.2 71 2.4 WNW 11 22 6 12 1008.6 1008.6 2.0
20/02:30am 11.1 7.8 6.3 72 2.2 WNW 13 30 7 16 1008.9 1008.9 2.0
20/02:00am 10.9 8.4 6.6 75 2.0 NW 9 22 5 12 1009.1 1009.1 2.0
20/01:30am 11.2 8.0 6.9 75 2.0 WNW 13 30 7 16 1009.6 1009.6 2.0
20/01:00am 11.3 8.3 7.6 78 1.8 WNW 13 28 7 15 1010.0 1010.0 2.0
20/12:30am 11.5 9.0 8.2 80 1.6 WNW 11 22 6 12 1010.1 1010.1 2.0
20/12:00am 11.5 8.8 9.1 85 1.2 W 13 24 7 13 1010.3 1010.3 2.0
 
Date/Time
EST
Temp
°C
App
Temp
°C
Dew
Point
°C
Rel
Hum
%
Delta-T
°C
Wind Press
QNH
hPa
Press
MSL
hPa
Rain since
9am
mm
Dir  Spd
km/h
Gust
km/h
Spd
kts
Gust
kts
19/11:30pm 11.4 8.9 9.8 90 0.8 WNW 13 30 7 16 1010.2 1010.2 2.0
19/11:00pm 11.7 8.5 10.1 90 0.8 WNW 17 30 9 16 1010.4 1010.4 2.0
19/10:30pm 11.8 8.7 10.4 91 0.7 W 17 32 9 17 1010.3 1010.3 1.2
19/10:03pm 14.8 8.7 9.6 71 2.7 NNW 32 50 17 27 1009.4 1009.4 0.2
19/10:00pm 14.7 8.6 9.7 72 2.6 NNW 32 46 17 25 1009.4 1009.4 0.2
19/09:30pm 14.9 8.7 9.5 70 2.8 NNW 32 43 17 23 1009.6 1009.6 0.2
19/09:13pm 14.7 8.9 9.5 71 2.7 NNW 30 48 16 26 1009.7 1009.7 0.2
19/09:00pm 14.5 8.4 9.7 73 2.5 NNW 32 43 17 23 1009.7 1009.7 0.0
19/08:44pm 14.8 9.4 9.4 70 2.8 NNW 28 48 15 26 1010.1 1010.1 0.0
19/08:30pm 15.0 8.7 8.9 67 3.1 NNW 32 43 17 23 1010.1 1010.1 0.0
19/08:17pm 15.1 9.1 8.8 66 3.2 NNW 30 52 16 28 1010.3 1010.3 0.0
19/08:00pm 15.4 9.7 8.4 63 3.5 NNW 28 43 15 23 1010.4 1010.4 0.0
19/07:39pm 15.3 8.8 8.3 63 3.5 NNW 32 50 17 27 1010.3 1010.3 0.0
19/07:30pm 15.4 8.7 8.2 62 3.6 NNW 33 50 18 27 1010.3 1010.3 0.0
19/07:00pm 15.1 8.7 8.6 65 3.3 NNW 32 48 17 26 1010.3 1010.3 0.0
19/06:40pm 15.4 9.7 8.2 62 3.6 NNW 28 52 15 28 1010.4 1010.4 0.0
19/06:30pm 15.2 10.7 8.4 64 3.4 NW 22 33 12 18 1010.5 1010.5 0.0
19/06:00pm 15.4 9.8 8.6 64 3.5 NNW 28 41 15 22 1010.4 1010.4 0.0
19/05:30pm 14.7 9.5 8.9 68 2.9 NNW 26 35 14 19 1010.5 1010.5 0.0
19/05:00pm 14.7 9.9 8.9 68 3.0 NNW 24 35 13 19 1010.7 1010.7 0.0
19/04:30pm 14.6 8.9 8.5 67 3.1 NNW 28 37 15 20 1010.7 1010.7 0.0
19/04:00pm 14.9 8.3 7.9 63 3.5 NNW 32 43 17 23 1010.8 1010.8 0.0
19/03:30pm 14.8 7.2 7.4 61 3.7 NNW 37 46 20 25 1010.9 1010.9 0.0
19/03:00pm 14.6 5.8 7.4 62 3.6 NNW 43 57 23 31 1011.2 1011.2 0.0
19/02:40pm 14.8 5.8 6.6 58 4.0 NNW 43 63 23 34 1011.3 1011.3 0.0
19/02:30pm 14.7 7.0 7.3 61 3.6 NNW 37 50 20 27 1011.5 1011.5 0.0
19/02:00pm 14.6 7.0 7.6 63 3.5 NNW 37 52 20 28 1012.2 1012.2 0.0
19/01:30pm 14.2 6.1 7.0 62 3.5 NNW 39 57 21 31 1012.7 1012.7 0.0
19/01:02pm 14.3 7.0 7.1 62 3.5 NNW 35 56 19 30 1012.8 1012.8 0.0
19/01:00pm 14.2 6.5 7.3 63 3.4 NNW 37 54 20 29 1012.8 1012.8 0.0
19/12:30pm 13.9 6.3 7.4 65 3.2 NNW 37 52 20 28 1013.4 1013.4 0.0
19/12:00pm 13.2 4.8 7.4 68 2.8 NNW 41 54 22 29 1013.9 1013.9 0.0
19/11:30am 12.8 3.9 6.8 67 2.9 NNW 43 61 23 33 1013.9 1013.9 0.0
19/11:00am 12.5 4.3 6.5 67 2.9 NNW 39 57 21 31 1014.2 1014.2 0.0
19/10:30am 12.5 4.4 7.0 69 2.6 NNW 39 54 21 29 1014.4 1014.4 0.0
19/10:00am 12.0 2.1 6.5 69 2.6 NNW 48 61 26 33 1014.2 1014.2 0.0
19/09:30am 12.1 2.6 6.6 69 2.6 NNW 46 61 25 33 1014.4 1014.4 0.0
19/09:00am 11.8 2.2 6.3 69 2.6 NNW 46 59 25 32 1014.8 1014.8 1.0
19/08:30am 11.5 2.3 6.4 71 2.4 NNW 44 59 24 32 1015.0 1015.0 1.0
19/08:00am 11.5 2.9 6.6 72 2.3 NNW 41 61 22 33 1015.0 1015.0 1.0
19/07:55am 11.5 3.3 6.6 72 2.3 NNW 39 61 21 33 1015.0 1015.0 1.0
19/07:30am 11.4 4.9 6.5 72 2.3 NNW 30 44 16 24 1015.6 1015.6 1.0
19/07:00am 11.1 4.2 6.6 74 2.1 NNW 32 44 17 24 1015.8 1015.8 1.0

Other formats

Comma delimited format used in spreadsheet applications
http://www.bom.gov.au/fwo/IDV60801/IDV60801.94892.axf

JavaScript Object Notation format (JSON) in row-major order
http://www.bom.gov.au/fwo/IDV60801/IDV60801.94892.json

Data quality

Most of these data are generated automatically and are frequently updated. Quality checks on data are not normally performed. It is possible for incorrect values to appear. Refer to information at About Latest Weather Observations and please check the disclaimer before using these data.